createdAt,value
2016-02-22T00:00:26.176Z,99.99
2016-02-22T00:01:29.367Z,99.99
2016-02-22T00:02:29.401Z,99.99
2016-02-22T00:03:55.075Z,99.99
2016-02-22T00:04:36.578Z,99.99
2016-02-22T00:06:30.539Z,99.99
2016-02-22T00:06:43.117Z,99.99
2016-02-22T00:08:52.684Z,99.99
2016-02-22T00:09:52.688Z,99.99
2016-02-22T00:11:02.237Z,99.99
2016-02-22T00:13:17.448Z,99.99
2016-02-22T00:14:17.451Z,99.99
2016-02-22T00:15:17.485Z,99.99
2016-02-22T00:16:27.086Z,99.99
2016-02-22T00:17:36.621Z,99.99
2016-02-22T00:19:02.311Z,99.99
2016-02-22T00:19:43.579Z,99.99
2016-02-22T00:21:50.099Z,99.99
2016-02-22T00:22:50.118Z,99.99
2016-02-22T00:23:57.699Z,99.99
2016-02-22T00:26:09.879Z,99.99
2016-02-22T00:27:09.866Z,99.99
2016-02-22T00:29:50.778Z,99.99
2016-02-22T00:30:25.109Z,99.99
2016-02-22T00:33:05.976Z,99.99
2016-02-22T00:33:40.335Z,99.99
2016-02-22T00:34:40.353Z,99.99
2016-02-22T00:35:49.903Z,99.99
2016-02-22T00:36:49.922Z,99.99
2016-02-22T00:37:59.470Z,99.99
2016-02-22T00:40:09.136Z,99.99
2016-02-22T00:42:18.703Z,99.99
2016-02-22T00:44:15.709Z,99.99
2016-02-22T00:44:34.553Z,99.99
2016-02-22T00:45:34.571Z,99.99
2016-02-22T00:46:34.807Z,99.99
2016-02-22T00:47:47.358Z,99.99
2016-02-22T00:48:47.375Z,99.99
2016-02-22T00:49:34.644Z,99.99
2016-02-22T00:51:00.349Z,99.99
2016-02-22T00:53:45.123Z,99.99
2016-02-22T00:54:54.735Z,99.99
2016-02-22T00:55:54.754Z,99.99
2016-02-22T00:56:23.476Z,99.99
2016-02-22T00:57:23.478Z,99.99
2016-02-22T00:58:35.902Z,99.99
2016-02-22T00:59:32.904Z,99.99
2016-02-22T01:00:45.690Z,99.99
2016-02-22T01:02:00.020Z,99.99
2016-02-22T01:02:58.616Z,99.99
2016-02-22T01:05:13.828Z,99.99
2016-02-22T01:06:13.845Z,99.99
2016-02-22T01:07:26.615Z,99.99
2016-02-22T01:08:13.914Z,99.99
2016-02-22T01:10:23.450Z,99.99
2016-02-22T01:13:59.286Z,99.99
2016-02-22T01:14:59.305Z,99.99
2016-02-22T01:15:59.323Z,99.99
2016-02-22T01:16:59.341Z,99.99
2016-02-22T01:18:06.238Z,99.99
2016-02-22T01:19:12.130Z,99.99
2016-02-22T01:19:59.412Z,99.99
2016-02-22T01:21:25.089Z,99.99
2016-02-22T01:22:28.232Z,99.99
2016-02-22T01:23:09.048Z,99.99
2016-02-22T01:24:34.738Z,99.99
2016-02-22T01:25:16.756Z,99.99
2016-02-22T01:27:24.293Z,99.99
2016-02-22T01:28:24.452Z,99.99
2016-02-22T01:29:24.329Z,99.99
2016-02-22T01:30:24.363Z,99.99
2016-02-22T01:31:37.101Z,99.99
2016-02-22T01:32:24.400Z,99.99
2016-02-22T01:33:50.106Z,99.99
2016-02-22T01:34:37.015Z,99.99
2016-02-22T01:35:33.986Z,99.99
2016-02-22T01:36:34.067Z,99.99
2016-02-22T01:38:49.198Z,99.99
2016-02-22T01:39:49.231Z,99.99
2016-02-22T01:41:01.969Z,99.99
2016-02-22T01:41:49.268Z,99.99
2016-02-22T01:42:49.270Z,99.99
2016-02-22T01:43:49.914Z,99.99
2016-02-22T01:46:11.610Z,99.99
2016-02-22T01:47:11.613Z,99.99
2016-02-22T01:48:11.647Z,99.99
2016-02-22T01:49:17.930Z,99.99
2016-02-22T01:50:11.667Z,99.99
2016-02-22T01:51:42.999Z,99.99
2016-02-22T01:52:26.891Z,99.99
2016-02-22T01:53:26.925Z,99.99
2016-02-22T01:54:33.194Z,99.99
2016-02-22T01:55:26.946Z,99.99
2016-02-22T01:56:46.199Z,99.99
2016-02-22T01:57:26.983Z,99.99
2016-02-22T01:58:27.001Z,99.99
2016-02-22T01:59:33.285Z,99.99
2016-02-22T02:00:39.804Z,99.99
2016-02-22T02:01:27.056Z,99.99
2016-02-22T02:02:52.762Z,99.99
2016-02-22T02:03:39.687Z,99.99
2016-02-22T02:04:58.909Z,99.99
2016-02-22T02:05:42.786Z,99.99
2016-02-22T02:06:42.789Z,99.99
2016-02-22T02:07:42.792Z,99.99
2016-02-22T02:08:42.825Z,99.99
2016-02-22T02:09:42.843Z,99.99
2016-02-22T02:10:42.862Z,99.99
2016-02-22T02:11:42.880Z,99.99
2016-02-22T02:12:42.883Z,99.99
2016-02-22T02:13:42.917Z,99.99
2016-02-22T02:14:42.950Z,99.99
2016-02-22T02:15:49.234Z,99.99
2016-02-22T02:16:42.986Z,99.99
2016-02-22T02:17:42.989Z,99.99
2016-02-22T02:18:43.008Z,99.99
2016-02-22T02:19:43.041Z,99.99
2016-02-22T02:20:43.044Z,99.99
2016-02-22T02:21:44.500Z,99.99
2016-02-22T02:23:08.771Z,99.99
2016-02-22T02:23:43.130Z,99.99
2016-02-22T02:24:43.150Z,99.99
2016-02-22T02:25:55.886Z,99.99
2016-02-22T02:26:43.186Z,99.99
2016-02-22T02:28:02.392Z,99.99
2016-02-22T02:28:44.644Z,99.99
2016-02-22T02:30:08.900Z,99.99
2016-02-22T02:30:52.775Z,99.99
2016-02-22T02:31:52.793Z,99.99
2016-02-22T02:33:05.549Z,99.99
2016-02-22T02:33:52.830Z,99.99
2016-02-22T02:35:12.054Z,99.99
2016-02-22T02:35:56.101Z,99.99
2016-02-22T02:36:56.120Z,99.99
2016-02-22T02:37:56.137Z,99.99
2016-02-22T02:39:02.421Z,99.99
2016-02-22T02:39:56.174Z,99.99
2016-02-22T02:40:56.192Z,99.99
2016-02-22T02:42:02.476Z,99.99
2016-02-22T02:42:56.229Z,99.99
2016-02-22T02:43:56.247Z,99.99
2016-02-22T02:45:22.158Z,99.99
2016-02-22T02:45:56.283Z,99.99
2016-02-22T02:46:56.302Z,99.99
2016-02-22T02:47:56.336Z,99.99
2016-02-22T02:48:56.338Z,99.99
2016-02-22T02:49:56.372Z,99.99
2016-02-22T02:50:56.375Z,99.99
2016-02-22T02:51:57.002Z,99.99
2016-02-22T02:52:56.427Z,99.99
2016-02-22T02:54:09.167Z,99.99
2016-02-22T02:54:56.463Z,99.99
2016-02-22T02:56:15.719Z,99.99
2016-02-22T02:57:15.707Z,99.99
2016-02-22T02:58:27.818Z,99.99
2016-02-22T02:59:27.837Z,99.99
2016-02-22T03:00:06.105Z,99.99
2016-02-22T03:01:06.092Z,99.99
2016-02-22T03:02:40.470Z,99.99
2016-02-22T03:03:18.692Z,99.99
2016-02-22T03:04:18.741Z,99.99
2016-02-22T03:05:34.619Z,99.99
2016-02-22T03:06:28.168Z,99.99
2016-02-22T03:07:47.687Z,99.99
2016-02-22T03:08:34.596Z,99.99
2016-02-22T03:09:31.583Z,99.99
2016-02-22T03:10:31.601Z,99.99
2016-02-22T03:11:31.635Z,99.99
2016-02-22T03:12:31.653Z,99.99
2016-02-22T03:13:31.672Z,99.99
2016-02-22T03:14:44.408Z,99.99
2016-02-22T03:15:44.428Z,99.99
2016-02-22T03:16:57.398Z,99.99
2016-02-22T03:17:57.400Z,99.99
2016-02-22T03:19:03.060Z,99.99
2016-02-22T03:19:31.782Z,99.99
2016-02-22T03:20:31.784Z,99.99
2016-02-22T03:21:31.818Z,99.99
2016-02-22T03:22:32.025Z,99.99
2016-02-22T03:23:32.058Z,99.99
2016-02-22T03:24:51.091Z,99.99
2016-02-22T03:25:31.876Z,99.99
2016-02-22T03:27:03.207Z,99.99
2016-02-22T03:27:31.928Z,99.99
2016-02-22T03:28:31.946Z,99.99
2016-02-22T03:29:44.699Z,99.99
2016-02-22T03:30:31.983Z,99.99
2016-02-22T03:31:51.189Z,99.99
2016-02-22T03:32:47.801Z,99.99
2016-02-22T03:34:00.757Z,99.99
2016-02-22T03:35:10.121Z,99.99
2016-02-22T03:36:03.871Z,99.99
2016-02-22T03:37:03.921Z,99.99
2016-02-22T03:38:10.176Z,99.99
2016-02-22T03:39:03.957Z,99.99
2016-02-22T03:40:23.151Z,99.99
2016-02-22T03:41:04.182Z,99.99
2016-02-22T03:42:29.656Z,99.99
2016-02-22T03:43:16.581Z,99.99
2016-02-22T03:44:13.536Z,99.99
2016-02-22T03:45:44.867Z,99.99
2016-02-22T03:46:54.448Z,99.99
2016-02-22T03:47:28.779Z,99.99
2016-02-22T03:49:00.313Z,99.99
2016-02-22T03:49:44.159Z,99.99
2016-02-22T03:50:44.208Z,99.99
2016-02-22T03:51:44.196Z,99.99
2016-02-22T03:52:47.495Z,99.99
2016-02-22T03:53:47.608Z,99.99
2016-02-22T03:55:00.235Z,99.99
2016-02-22T03:56:00.238Z,99.99
2016-02-22T03:58:22.652Z,99.99
2016-02-22T03:59:09.843Z,99.99
2016-02-22T04:00:09.861Z,99.99
2016-02-22T04:01:09.879Z,99.99
2016-02-22T04:02:09.741Z,99.99
2016-02-22T04:03:16.166Z,99.99
2016-02-22T04:04:22.668Z,99.99
2016-02-22T04:05:29.140Z,99.99
2016-02-22T04:06:29.174Z,99.99
2016-02-22T04:08:38.757Z,99.99
2016-02-22T04:10:54.590Z,99.99
2016-02-22T04:12:26.753Z,99.99
2016-02-22T04:13:07.584Z,99.99
2016-02-22T04:14:17.148Z,99.99
2016-02-22T04:15:17.151Z,99.99
2016-02-22T04:16:49.123Z,99.99
2016-02-22T04:17:27.359Z,99.99
2016-02-22T04:18:58.690Z,99.99
2016-02-22T04:19:37.208Z,99.99
2016-02-22T04:21:34.198Z,99.99
2016-02-22T04:21:53.042Z,99.99
2016-02-22T04:22:53.029Z,99.99
2016-02-22T04:24:05.797Z,99.99
2016-02-22T04:24:53.285Z,99.99
2016-02-22T04:26:12.305Z,99.99
2016-02-22T04:27:10.386Z,99.99
2016-02-22T04:28:16.920Z,99.99
2016-02-22T04:29:00.795Z,99.99
2016-02-22T04:30:00.813Z,99.99
2016-02-22T04:31:26.507Z,99.99
2016-02-22T04:32:23.149Z,99.99
2016-02-22T04:33:10.387Z,99.99
2016-02-22T04:34:10.405Z,99.99
2016-02-22T04:35:11.845Z,99.99
2016-02-22T04:36:36.113Z,99.99
2016-02-22T04:37:19.991Z,99.99
2016-02-22T04:38:45.682Z,99.99
2016-02-22T04:39:29.543Z,99.99
2016-02-22T04:40:55.218Z,99.99
2016-02-22T04:41:39.298Z,99.99
2016-02-22T04:44:45.009Z,99.99
2016-02-22T04:45:45.013Z,99.99
2016-02-22T04:46:51.297Z,99.99
2016-02-22T04:47:45.300Z,99.99
2016-02-22T04:48:57.817Z,99.99
2016-02-22T04:49:45.524Z,99.99
2016-02-22T04:51:04.308Z,99.99
2016-02-22T04:51:46.513Z,99.99
2016-02-22T04:53:10.799Z,99.99
2016-02-22T04:53:54.721Z,99.99
2016-02-22T04:54:54.709Z,99.99
2016-02-22T04:56:00.852Z,99.99
2016-02-22T04:57:23.530Z,99.99
2016-02-22T04:58:10.579Z,99.99
2016-02-22T05:00:04.175Z,99.99
2016-02-22T05:00:57.896Z,99.99
2016-02-22T05:02:13.090Z,99.99
2016-02-22T05:03:13.171Z,99.99
2016-02-22T05:05:22.725Z,99.99
2016-02-22T05:08:03.543Z,99.99
2016-02-22T05:08:37.904Z,99.99
2016-02-22T05:10:03.595Z,99.99
2016-02-22T05:10:47.457Z,99.68
2016-02-22T05:12:29.040Z,99.58
2016-02-22T05:13:26.512Z,99.99
2016-02-22T05:15:36.877Z,99.99
2016-02-22T05:16:36.880Z,99.99
2016-02-22T05:17:36.898Z,99.99
2016-02-22T05:18:36.947Z,99.99
2016-02-22T05:19:36.933Z,99.99
2016-02-22T05:20:36.936Z,99.99
2016-02-22T05:21:36.972Z,99.99
2016-02-22T05:22:36.974Z,99.99
2016-02-22T05:24:02.679Z,99.99
2016-02-22T05:24:46.652Z,99.99
2016-02-22T05:28:47.272Z,99.87
2016-02-22T05:31:31.216Z,99.99
2016-02-22T05:34:01.425Z,99.99
2016-02-22T05:35:00.037Z,99.99
2016-02-22T05:36:15.277Z,99.99
2016-02-22T05:37:15.248Z,99.99
2016-02-22T05:38:48.001Z,99.99
2016-02-22T05:39:27.659Z,99.99
2016-02-22T05:41:41.540Z,99.99
2016-02-22T05:42:41.559Z,98.26
2016-02-22T05:43:47.827Z,97.69
2016-02-22T05:44:51.533Z,98.83
2016-02-22T05:45:51.551Z,98.92
2016-02-22T05:46:51.553Z,99.68
2016-02-22T05:48:17.247Z,99.68
2016-02-22T05:49:01.137Z,99.21
2016-02-22T05:50:23.549Z,99.68
2016-02-22T05:51:20.286Z,99.99
2016-02-22T05:52:20.320Z,99.99
2016-02-22T05:53:51.619Z,99.99
2016-02-22T05:54:29.888Z,99.99
2016-02-22T05:57:10.755Z,99.99
2016-02-22T05:57:45.115Z,99.99
2016-02-22T05:58:45.117Z,99.99
2016-02-22T05:59:54.683Z,99.99
2016-02-22T06:00:54.701Z,99.99
2016-02-22T06:03:35.741Z,99.99
2016-02-22T06:04:09.930Z,99.68
2016-02-22T06:05:35.729Z,99.99
2016-02-22T06:06:19.765Z,99.99
2016-02-22T06:07:42.126Z,99.77
2016-02-22T06:08:29.378Z,99.49
2016-02-22T06:09:48.580Z,99.99
2016-02-22T06:11:00.680Z,99.4
2016-02-22T06:12:03.748Z,98.78
2016-02-22T06:12:44.550Z,99.63
2016-02-22T06:14:10.221Z,99.44
2016-02-22T06:14:48.455Z,99.99
2016-02-22T06:16:19.779Z,99.99
2016-02-22T06:17:03.888Z,99.99
2016-02-22T06:18:03.825Z,99.99
2016-02-22T06:19:03.869Z,99.99
2016-02-22T06:20:03.852Z,99.58
2016-02-22T06:21:16.605Z,98.83
2016-02-22T06:22:10.183Z,98.87
2016-02-22T06:23:23.123Z,98.78
2016-02-22T06:24:03.935Z,98.4
2016-02-22T06:25:29.610Z,98.68
2016-02-22T06:26:26.206Z,98.21
2016-02-22T06:28:48.694Z,97.6
2016-02-22T06:29:48.728Z,97.92
2016-02-22T06:31:01.401Z,97.36
2016-02-22T06:32:01.279Z,96.97
2016-02-22T06:33:07.828Z,96.97
2016-02-22T06:33:48.643Z,97.26
2016-02-22T06:35:14.335Z,97.74
2016-02-22T06:35:48.679Z,96.97
2016-02-22T06:36:48.635Z,97.17
2016-02-22T06:37:58.185Z,96.78
2016-02-22T06:38:58.218Z,97.64
2016-02-22T06:39:58.253Z,97.26
2016-02-22T06:41:23.915Z,97.17
2016-02-22T06:42:33.386Z,97.36
2016-02-22T06:43:33.591Z,98.45
2016-02-22T06:44:39.251Z,97.12
2016-02-22T06:45:54.425Z,97.41
2016-02-22T06:46:54.443Z,97.6
2016-02-22T06:47:54.493Z,97.41
2016-02-22T06:48:54.481Z,97.02
2016-02-22T06:50:07.233Z,97.69
2016-02-22T06:50:54.516Z,97.6
2016-02-22T06:52:13.757Z,97.88
2016-02-22T06:52:57.664Z,97.36
2016-02-22T06:54:16.886Z,97.07
2016-02-22T06:56:38.377Z,97.26
2016-02-22T06:57:32.707Z,97.55
2016-02-22T06:58:38.397Z,98.02
2016-02-22T06:59:32.150Z,98.21
2016-02-22T07:00:44.888Z,98.02
2016-02-22T07:01:44.921Z,96.97
2016-02-22T07:02:32.174Z,97.36
2016-02-22T07:03:57.927Z,98.3
2016-02-22T07:04:44.960Z,98.02
2016-02-22T07:05:32.244Z,98.26
2016-02-22T07:06:32.263Z,98.02
2016-02-22T07:07:32.266Z,97.55
2016-02-22T07:08:32.284Z,98.02
2016-02-22T07:09:38.584Z,97.07
2016-02-22T07:10:38.601Z,97.26
2016-02-22T07:11:32.339Z,96.97
2016-02-22T07:12:45.092Z,96.41
2016-02-22T07:13:32.375Z,96.97
2016-02-22T07:14:51.597Z,96.97
2016-02-22T07:15:35.521Z,97.07
2016-02-22T07:16:54.728Z,97.26
2016-02-22T07:18:06.870Z,97.64
2016-02-22T07:18:38.608Z,98.02
2016-02-22T07:19:35.595Z,97.64
2016-02-22T07:20:45.253Z,97.55
2016-02-22T07:23:27.512Z,97.17
2016-02-22T07:24:01.856Z,97.83
2016-02-22T07:26:17.067Z,97.26
2016-02-22T07:27:17.085Z,96.59
2016-02-22T07:29:28.043Z,97.17
2016-02-22T07:30:28.062Z,97.17
2016-02-22T07:31:40.830Z,96.5
2016-02-22T07:32:28.707Z,96.31
2016-02-22T07:33:47.336Z,96.22
2016-02-22T07:34:28.135Z,96.22
2016-02-22T07:35:53.825Z,96.31
2016-02-22T07:36:37.702Z,96.59
2016-02-22T07:37:37.705Z,96.12
2016-02-22T07:38:37.755Z,96.22
2016-02-22T07:39:53.007Z,95.36
2016-02-22T07:40:52.979Z,95.07
2016-02-22T07:43:02.548Z,94.32
2016-02-22T07:44:33.881Z,93.84
2016-02-22T07:45:17.774Z,93.75
2016-02-22T07:46:37.011Z,94.51
2016-02-22T07:47:52.186Z,93.94
2016-02-22T07:48:40.110Z,94.32
2016-02-22T07:50:30.459Z,93.08
2016-02-22T07:52:55.965Z,93.84
2016-02-22T07:53:30.498Z,93.46
2016-02-22T07:54:45.673Z,93.18
2016-02-22T07:55:45.786Z,92.99
2016-02-22T07:56:45.710Z,92.61
2016-02-22T07:57:52.009Z,92.52
2016-02-22T07:58:52.028Z,92.8
2016-02-22T08:00:04.811Z,92.9
2016-02-22T08:01:01.533Z,92.71
2016-02-22T08:03:35.932Z,91
2016-02-22T08:04:16.731Z,91.19
2016-02-22T08:05:42.438Z,91.94
2016-02-22T08:06:52.455Z,91.47
2016-02-22T08:07:26.785Z,91.24
2016-02-22T08:08:58.102Z,90.47
2016-02-22T08:09:33.089Z,90.43
2016-02-22T08:11:42.031Z,90.57
2016-02-22T08:12:42.035Z,91.42
2016-02-22T08:13:42.052Z,91
2016-02-22T08:14:42.070Z,91.28
2016-02-22T08:15:54.823Z,91.52
2016-02-22T08:16:54.826Z,90.66
2016-02-22T08:17:42.126Z,91.42
2016-02-22T08:19:01.331Z,91.09
2016-02-22T08:19:48.428Z,91.24
2016-02-22T08:21:07.837Z,90.71
2016-02-22T08:22:01.418Z,89.53
2016-02-22T08:23:16.611Z,88.95
2016-02-22T08:24:16.614Z,89.39
2016-02-22T08:25:16.631Z,90.19
2016-02-22T08:26:16.853Z,89.86
2016-02-22T08:27:16.683Z,89.39
2016-02-22T08:28:16.686Z,89.29
2016-02-22T08:29:16.705Z,90.05
2016-02-22T08:30:29.473Z,88.67
2016-02-22T08:31:22.991Z,88.48
2016-02-22T08:32:35.978Z,89.72
2016-02-22T08:33:39.216Z,87.77
2016-02-22T08:34:20.062Z,87.3
2016-02-22T08:36:55.271Z,87.87
2016-02-22T08:37:29.632Z,87.2
2016-02-22T08:39:44.935Z,87.96
2016-02-22T08:40:44.938Z,88.43
2016-02-22T08:41:44.941Z,87.58
2016-02-22T08:42:51.271Z,88.62
2016-02-22T08:43:44.993Z,88.91
2016-02-22T08:45:04.199Z,89.2
2016-02-22T08:46:04.232Z,89.58
2016-02-22T08:46:45.032Z,89.2
2016-02-22T08:48:16.365Z,89.81
2016-02-22T08:48:54.615Z,90.24
2016-02-22T08:50:26.042Z,89.2
2016-02-22T08:51:09.948Z,90.14
2016-02-22T08:52:10.030Z,90.81
2016-02-22T08:53:10.017Z,90.43
2016-02-22T08:54:10.019Z,91.38
2016-02-22T08:55:11.459Z,92.42
2016-02-22T08:56:11.461Z,92.33
2016-02-22T08:57:29.280Z,91.85
2016-02-22T08:58:10.077Z,91.89
2016-02-22T09:00:44.508Z,90.62
2016-02-22T09:01:44.494Z,89.24
2016-02-22T09:02:57.105Z,89.95
2016-02-22T09:03:44.686Z,90.19
2016-02-22T09:05:38.271Z,90.19
2016-02-22T09:05:59.880Z,91.14
2016-02-22T09:07:44.776Z,91.24
2016-02-22T09:08:00.135Z,91.04
2016-02-22T09:08:59.919Z,91.71
2016-02-22T09:09:59.969Z,90.19
2016-02-22T09:10:59.987Z,89.72
2016-02-22T09:12:12.740Z,90.57
2016-02-22T09:13:06.290Z,91.38
2016-02-22T09:14:19.232Z,94.03
2016-02-22T09:15:19.250Z,91.38
2016-02-22T09:16:31.362Z,90.52
2016-02-22T09:17:31.396Z,89.48
2016-02-22T09:18:06.365Z,89
2016-02-22T09:19:19.324Z,88.91
2016-02-22T09:20:19.373Z,89.2
2016-02-22T09:24:04.084Z,91.28
2016-02-22T09:25:17.027Z,91.94
2016-02-22T09:26:47.280Z,92.8
2016-02-22T09:28:02.455Z,91.75
2016-02-22T09:29:02.489Z,91.75
2016-02-22T09:30:15.291Z,92.14
2016-02-22T09:31:03.119Z,93.23
2016-02-22T09:32:28.311Z,92.09
2016-02-22T09:33:12.186Z,92.38
2016-02-22T09:34:31.427Z,93.41
2016-02-22T09:35:15.304Z,93.13
2016-02-22T09:37:31.169Z,93.65
2016-02-22T09:38:31.172Z,92.61
2016-02-22T09:39:44.033Z,92.8
2016-02-22T09:40:31.193Z,93.08
2016-02-22T09:41:50.211Z,93.75
2016-02-22T09:42:34.229Z,93.75
2016-02-22T09:43:34.248Z,94.32
2016-02-22T09:45:47.004Z,94.13
2016-02-22T09:46:34.287Z,93.65
2016-02-22T09:47:34.304Z,94.51
2016-02-22T09:48:34.339Z,94.42
2016-02-22T09:50:46.954Z,93.94
2016-02-22T09:51:43.956Z,93.75
2016-02-22T09:52:56.694Z,93.84
2016-02-22T09:53:44.195Z,93.37
2016-02-22T09:55:03.199Z,92.99
2016-02-22T09:55:50.280Z,92.23
2016-02-22T09:57:15.395Z,92.42
2016-02-22T09:57:59.614Z,92.66
2016-02-22T09:58:59.289Z,92.66
2016-02-22T09:59:59.306Z,92.28
2016-02-22T10:01:00.747Z,92.71
2016-02-22T10:02:18.549Z,94.32
2016-02-22T10:03:02.502Z,91.28
2016-02-22T10:04:28.163Z,89.58
2016-02-22T10:05:43.353Z,89.43
2016-02-22T10:06:43.372Z,87.43
2016-02-22T10:07:49.655Z,88.95
2016-02-22T10:08:43.408Z,89.33
2016-02-22T10:10:02.723Z,89.33
2016-02-22T10:10:43.429Z,89.05
2016-02-22T10:12:14.763Z,84.87
2016-02-22T10:12:53.013Z,84.83
2016-02-22T10:14:18.722Z,86.07
2016-02-22T10:15:02.597Z,86.91
2016-02-22T10:16:02.599Z,87.87
2016-02-22T10:17:02.601Z,89.29
2016-02-22T10:18:03.340Z,89.2
2016-02-22T10:19:12.904Z,90.71
2016-02-22T10:20:12.923Z,90.62
2016-02-22T10:21:19.225Z,89.48
2016-02-22T10:22:19.431Z,89.48
2016-02-22T10:23:19.246Z,89.95
2016-02-22T10:24:25.717Z,90.71
2016-02-22T10:25:25.736Z,89
2016-02-22T10:26:38.707Z,88.91
2016-02-22T10:27:13.035Z,88.72
2016-02-22T10:29:53.949Z,89.33
2016-02-22T10:30:28.295Z,89.05
2016-02-22T10:31:28.298Z,89.33
2016-02-22T10:32:43.505Z,89.33
2016-02-22T10:33:43.507Z,89.62
2016-02-22T10:36:24.905Z,89.33
2016-02-22T10:36:59.186Z,89.43
2016-02-22T10:38:30.552Z,89.53
2016-02-22T10:39:14.427Z,88.57
2016-02-22T10:40:33.666Z,88.86
2016-02-22T10:41:30.310Z,87.72
2016-02-22T10:42:43.281Z,87.62
2016-02-22T10:43:43.284Z,87.62
2016-02-22T10:45:58.602Z,87.86
2016-02-22T10:46:58.682Z,87.57
2016-02-22T10:47:58.623Z,86.91
2016-02-22T10:49:11.391Z,86.3
2016-02-22T10:49:58.675Z,85.82
2016-02-22T10:51:17.884Z,85.82
2016-02-22T10:52:11.431Z,85.63
2016-02-22T10:53:30.014Z,86.2
2016-02-22T10:54:17.939Z,86.11
2016-02-22T10:56:18.569Z,87.62
2016-02-22T10:57:34.400Z,85.53
2016-02-22T10:58:12.634Z,84.78
2016-02-22T11:00:59.142Z,85.63
2016-02-22T11:01:27.848Z,85.16
2016-02-22T11:02:27.881Z,85.25
2016-02-22T11:03:43.056Z,86.01
2016-02-22T11:04:43.075Z,85.25
2016-02-22T11:05:43.109Z,85.72
2016-02-22T11:06:55.861Z,87.43
2016-02-22T11:07:55.927Z,86.01
2016-02-22T11:09:08.819Z,83.83
2016-02-22T11:09:43.197Z,83.45
2016-02-22T11:11:43.218Z,85.16
2016-02-22T11:12:43.221Z,83.83
2016-02-22T11:13:58.411Z,84.3
2016-02-22T11:14:58.493Z,84.87
2016-02-22T11:17:08.060Z,84.87
2016-02-22T11:19:23.365Z,84.87
2016-02-22T11:20:23.384Z,85.06
2016-02-22T11:21:36.120Z,84.49
2016-02-22T11:22:29.670Z,83.64
2016-02-22T11:23:42.626Z,83.64
2016-02-22T11:24:39.238Z,84.11
2016-02-22T11:25:52.209Z,84.11
2016-02-22T11:26:55.290Z,84.68
2016-02-22T11:29:01.608Z,83.83
2016-02-22T11:29:55.361Z,82.97
2016-02-22T11:30:55.363Z,82.97
2016-02-22T11:32:08.117Z,82.78
2016-02-22T11:33:08.134Z,83.26
2016-02-22T11:35:55.502Z,82.69
2016-02-22T11:36:58.536Z,83.07
2016-02-22T11:37:55.522Z,82.59
2016-02-22T11:39:01.822Z,80.6
2016-02-22T11:40:14.763Z,81.17
2016-02-22T11:41:11.328Z,82.21
2016-02-22T11:42:17.724Z,81.84
2016-02-22T11:42:58.536Z,79.84
2016-02-22T11:45:46.451Z,78.89
2016-02-22T11:46:46.485Z,80.03
2016-02-22T11:47:46.487Z,79.55
2016-02-22T11:48:46.521Z,80.03
2016-02-22T11:49:59.258Z,80.03
2016-02-22T11:50:46.543Z,80.32
2016-02-22T11:52:12.232Z,79.94
2016-02-22T11:52:46.578Z,78.8
2016-02-22T11:54:18.521Z,79.55
2016-02-22T11:55:02.396Z,79.55
2016-02-22T11:56:02.415Z,80.03
2016-02-22T11:57:02.433Z,78.99
2016-02-22T11:58:15.171Z,78.23
2016-02-22T11:59:02.454Z,79.17
2016-02-22T12:00:21.678Z,79.27
2016-02-22T12:01:05.569Z,78.99
2016-02-22T12:02:31.309Z,79.84
2016-02-22T12:03:15.184Z,78.8
2016-02-22T12:04:15.217Z,78.13
2016-02-22T12:05:15.252Z,79.74
2016-02-22T12:06:24.836Z,80.03
2016-02-22T12:07:24.838Z,78.8
2016-02-22T12:08:40.028Z,78.8
2016-02-22T12:09:40.093Z,78.99
2016-02-22T12:10:52.800Z,78.61
2016-02-22T12:11:52.802Z,78.7
2016-02-22T12:14:11.947Z,77.66
2016-02-22T12:16:24.097Z,77.66
2016-02-22T12:17:24.162Z,78.8
2016-02-22T12:18:58.539Z,76.52
2016-02-22T12:19:36.871Z,77.18
2016-02-22T12:21:02.482Z,76.9
2016-02-22T12:21:46.344Z,75.85
2016-02-22T12:23:05.581Z,76.52
2016-02-22T12:23:46.382Z,77.09
2016-02-22T12:25:12.087Z,76.9
2016-02-22T12:25:56.574Z,76.99
2016-02-22T12:26:56.670Z,77.75
2016-02-22T12:28:22.285Z,77.84
2016-02-22T12:29:19.132Z,75.76
2016-02-22T12:30:15.835Z,77.09
2016-02-22T12:31:28.527Z,76.71
2016-02-22T12:32:18.687Z,76.42
2016-02-22T12:33:18.689Z,75.57
2016-02-22T12:34:50.020Z,75.85
2016-02-22T12:35:59.585Z,75.09
2016-02-22T12:36:33.932Z,75.38
2016-02-22T12:39:14.828Z,74.71
2016-02-22T12:39:49.174Z,75.47
2016-02-22T12:40:49.176Z,74.9
2016-02-22T12:41:58.758Z,74.56
2016-02-22T12:43:24.450Z,75.67
2016-02-22T12:44:08.325Z,75.28
2016-02-22T12:45:08.343Z,75.09
2016-02-22T12:46:14.628Z,73.38
2016-02-22T12:47:08.380Z,74.43
2016-02-22T12:48:08.399Z,73.86
2016-02-22T12:49:08.620Z,73.57
2016-02-22T12:50:08.435Z,73.67
2016-02-22T12:51:27.738Z,73.57
2016-02-22T12:52:08.691Z,73.76
2016-02-22T12:53:34.279Z,74.15
2016-02-22T12:54:08.513Z,73
2016-02-22T12:55:08.516Z,73
2016-02-22T12:56:21.725Z,72.53
2016-02-22T12:57:08.568Z,72.06
2016-02-22T12:58:27.902Z,73.38
2016-02-22T12:59:08.606Z,72.53
2016-02-22T13:00:39.922Z,73.96
2016-02-22T13:01:23.660Z,72.25
2016-02-22T13:04:42.840Z,73.86
2016-02-22T13:06:02.155Z,73.38
2016-02-22T13:06:49.064Z,73.86
2016-02-22T13:08:05.238Z,74.33
2016-02-22T13:08:49.116Z,73.38
2016-02-22T13:09:52.213Z,73.1
2016-02-22T13:13:04.393Z,73.86
2016-02-22T13:14:04.442Z,74.05
2016-02-22T13:15:04.429Z,74.81
2016-02-22T13:16:10.713Z,74.62
2016-02-22T13:17:35.844Z,74.33
2016-02-22T13:18:21.235Z,73.86
2016-02-22T13:19:21.252Z,74.9
2016-02-22T13:20:21.271Z,75
2016-02-22T13:21:33.854Z,75.19
2016-02-22T13:22:56.513Z,75.85
2016-02-22T13:23:37.126Z,75.85
2016-02-22T13:25:02.190Z,73.76
2016-02-22T13:25:41.943Z,73.86
2016-02-22T13:26:42.056Z,74.62
2016-02-22T13:27:41.979Z,73.96
2016-02-22T13:29:13.295Z,75.09
2016-02-22T13:29:54.626Z,75
2016-02-22T13:32:01.163Z,74.24
2016-02-22T13:33:32.480Z,75
2016-02-22T13:34:16.355Z,75.76
2016-02-22T13:35:42.048Z,75.47
2016-02-22T13:36:25.908Z,75.76
2016-02-22T13:37:45.131Z,75.76
2016-02-22T13:38:25.960Z,75.09
2016-02-22T13:39:51.636Z,75.95
2016-02-22T13:40:26.730Z,76.23
2016-02-22T13:41:51.689Z,76.9
2016-02-22T13:42:26.096Z,76.71
2016-02-22T13:43:51.710Z,77.09
2016-02-22T13:44:35.963Z,78.42
2016-02-22T13:46:01.528Z,77.84
2016-02-22T13:46:45.531Z,76.86
2016-02-22T13:48:04.705Z,77.71
2016-02-22T13:48:58.256Z,78.09
2016-02-22T13:50:16.836Z,78
2016-02-22T13:51:07.901Z,78.56
2016-02-22T13:54:29.629Z,79.42
2016-02-22T13:55:04.410Z,79.14
2016-02-22T13:56:04.279Z,79.52
2016-02-22T13:57:17.423Z,79.8
2016-02-22T13:59:27.554Z,79.52
2016-02-22T14:00:27.571Z,80.27
2016-02-22T14:01:27.777Z,80.46
2016-02-22T14:02:27.609Z,80.18
2016-02-22T14:03:27.612Z,79.9
2016-02-22T14:04:27.661Z,81.32
2016-02-22T14:05:40.385Z,81.98
2016-02-22T14:06:33.932Z,82.08
2016-02-22T14:07:46.906Z,81.98
2016-02-22T14:08:27.734Z,82.17
2016-02-22T14:09:53.411Z,82.65
2016-02-22T14:10:44.384Z,82.46
2016-02-22T14:11:57.137Z,82.65
2016-02-22T14:12:45.014Z,82.17
2016-02-22T14:13:44.438Z,82.08
2016-02-22T14:14:44.472Z,83.03
2016-02-22T14:15:44.490Z,82.65
2016-02-22T14:16:44.478Z,82.93
2016-02-22T14:17:44.495Z,83.69
2016-02-22T14:18:44.514Z,83.22
2016-02-22T14:19:44.547Z,83.78
2016-02-22T14:20:44.551Z,84.55
2016-02-22T14:21:44.569Z,84.45
2016-02-22T14:22:44.603Z,84.55
2016-02-22T14:23:44.605Z,84.17
2016-02-22T14:24:44.625Z,83.78
2016-02-22T14:25:44.627Z,84.69
2016-02-22T14:26:44.661Z,84.64
2016-02-22T14:27:44.694Z,85.02
2016-02-22T14:28:44.697Z,84.83
2016-02-22T14:29:44.716Z,85.02
2016-02-22T14:30:44.749Z,84.17
2016-02-22T14:31:44.736Z,84.83
2016-02-22T14:32:44.771Z,85.4
2016-02-22T14:33:44.788Z,85.59
2016-02-22T14:34:44.807Z,85.78
2016-02-22T14:35:51.080Z,85.64
2016-02-22T14:36:44.833Z,85.26
2016-02-22T14:37:57.586Z,85.68
2016-02-22T14:38:44.870Z,86.02
2016-02-22T14:39:44.888Z,86.54
2016-02-22T14:40:44.890Z,86.54
2016-02-22T14:41:45.065Z,87.68
2016-02-22T14:42:57.678Z,87.39
2016-02-22T14:43:51.274Z,87.77
2016-02-22T14:45:04.183Z,87.45
2016-02-22T14:45:51.264Z,87.54
2016-02-22T14:47:16.297Z,88.81
2016-02-22T14:48:00.191Z,89.62
2016-02-22T14:49:00.195Z,90
2016-02-22T14:50:00.211Z,90.38
2016-02-22T14:51:12.950Z,90.95